Flight Track Log - Related Links

Times and Time Zones

All times are in EDT time to prevent confusion due to time zone crossing. See the WEW1540 flight status page for this flight to view local times or setup timezone preferences in your user account.

Time Position Orientation Groundspeed Altitude Reporting Facility
EDT Latitude Longitude Course Direction KTS MPH feet Rate Location/Type
Thu 07:10:06 PM 51.3667 -109.1167 142° Southeast 130 150 9,000  Level Winnipeg Center
Thu 07:11:06 PM 51.3500 -109.0667 118° Southeast 180 207 9,100 50 Climbing Winnipeg Center
Thu 07:12:06 PM 51.3000 -109.0167 148° Southeast 190 219 9,100  Level Winnipeg Center
Thu 07:13:06 PM 51.2667 -108.9667 137° Southeast 180 207 9,100  Level Winnipeg Center
Thu 07:14:06 PM 51.2333 -108.9000 129° Southeast 190 219 9,100  Level Winnipeg Center
Thu 07:15:00 PM 51.1444 -108.7162 142° Southeast  Level Estimated
Thu 07:15:06 PM 51.1833 -108.8333 140° Southeast 190 219 9,100  Level Winnipeg Center
Thu 07:16:06 PM 51.1333 -108.7833 148° Southeast 190 219 9,100  Level Winnipeg Center
Thu 07:17:06 PM 51.1000 -108.7333 137° Southeast 190 219 9,100 -50 Level Winnipeg Center
Thu 07:18:06 PM 51.0667 -108.6667 128° Southeast 190 219 9,000 -50 Descending Winnipeg Center
Thu 07:19:06 PM 51.0167 -108.6333 157° South 200 230 9,000  Level Winnipeg Center
Thu 07:20:06 PM 50.9667 -108.5667 140° Southeast 190 219 9,000  Level Winnipeg Center
Thu 07:21:06 PM 50.9500 -108.5000 112° Southeast 190 219 9,000  Level Winnipeg Center
Thu 07:22:06 PM 50.9000 -108.4667 157° South 190 219 9,000  Level Winnipeg Center
Thu 07:23:06 PM 50.8500 -108.4000 140° Southeast 190 219 9,000  Level Winnipeg Center
Thu 07:24:06 PM 50.8167 -108.3667 148° Southeast 190 219 9,000  Level Winnipeg Center
Thu 07:25:06 PM 50.7833 -108.3167 137° Southeast 180 207 9,000  Level Winnipeg Center
Thu 07:27:00 PM 50.7174 -108.2203 137° Southeast  Level FlightAware Approximate
Thu 07:34:00 PM 50.4623 -107.8870 143° Southeast  Level FlightAware Approximate
Thu 07:35:00 PM 50.4244 -107.8425 143° Southeast  Level FlightAware Approximate
Thu 07:36:00 PM 50.3862 -107.7989 144° Southeast  Level FlightAware Approximate
Thu 07:37:00 PM 50.3478 -107.7557 144° Southeast  Level FlightAware Approximate
Thu 07:38:00 PM 50.3094 -107.7125 144° Southeast  Level FlightAware Approximate
Thu 07:39:00 PM 50.2919 -107.6906 144° Southeast  Level Estimated
Thu 07:40:00 PM 50.2919 -107.6906 144° Southeast  Level Estimated
Thu 07:41:00 PM 50.2919 -107.6906 144° Southeast  Level Estimated
Thu 07:42:00 PM 50.2919 -107.6906 144° Southeast  Level Estimated
Thu 07:43:00 PM 50.2919 -107.6906 144° Southeast  Level Estimated
Thu 07:44:00 PM 50.2919 -107.6906 144° Southeast  Level Estimated

Login

Don't have an account? Register now (free) for customized features, flight alerts, and more!